Meteo Giornale » Osservazioni meteo Italia » Grazzanise

ore: 03:55 - Osservazioni Meteo Grazzanise
Lat. 41° 3' N Lon. 14° 4' E Alt. 9 metri s.l.m.

sereno Europe/Rome

18 °C

Sereno

Temp. 24 Ore

18 °C

28 °C

Nord

11.1 Km/h

Dew point 16 °C

Umidità 88 %

Visibilità  10 Km

Il sole sorge alle ore 05:53

Il sole tramonta alle ore 20:26

Data e Ora Cielo e Fenomeni T °C DP °C Um. % Pres. hPa Vis. km Vento km/h
Oggi h: 03:55 sereno Sereno 18 16 88 1009 10 N 11.1
Oggi h: 02:55 sereno Sereno 18 16 88 1009 10 N 9.3
Oggi h: 01:55 sereno Sereno 18 17 93 1009 10 N 5.5
Oggi h: 00:55 sereno Sereno 18 17 93 1009 10 NE 7.4
Ieri h: 23:55 sereno Sereno 20 18 88 1008 10 N/NE 9.3
Ieri h: 22:55 sereno Sereno 20 19 93 1008 10 N/NE 11.1
Ieri h: 21:55 sereno Sereno 21 18 82 1008 10 N 5.5
Ieri h: 20:55 poco_nuvoloso Poco Nuvoloso 22 18 78 1007 10 NE 9.3
Ieri h: 19:55 poco_nuvoloso Poco Nuvoloso 24 18 69 1006 10 E/SE 11.1
Ieri h: 18:55 nuvoloso Nuvoloso 27 19 61 1006 10 SE 22.2
Ieri h: 17:55 nuvoloso Nuvoloso 27 23 78 1006 10 O 14.8
Ieri h: 16:55 nuvoloso Nuvoloso 27 24 83 1006 10 O 22.2
Ieri h: 15:55 nuvoloso Nuvoloso 26 23 83 1006 10 O 24
Ieri h: 14:55 nuvoloso Nuvoloso 27 23 78 1006 10 O 22.2
Ieri h: 13:55 nuvoloso Nuvoloso 28 22 69 1006 10 O/SO 22.2
Ieri h: 12:55 nuvoloso Nuvoloso 28 23 74 1006 10 O/SO 18.5
Ieri h: 11:55 nuvoloso Nuvoloso 28 23 74 1006 10 O/SO 9.3
Ieri h: 10:55 nuvoloso Nuvoloso 27 23 78 1006 10 N 5.5
Ieri h: 09:55 nuvoloso Nuvoloso 25 22 83 1006 10 N 5.5
Ieri h: 08:55 poco_nuvoloso Poco Nuvoloso 24 21 83 1006 8 N 5.5
Ieri h: 07:55 poco_nuvoloso Poco Nuvoloso 21 19 88 1006 8 N 7.4
Ieri h: 06:55 poco_nuvoloso Poco Nuvoloso 19 17 88 1005 6 N 3.7
Ieri h: 05:55 nuvoloso Nuvoloso 19 17 88 1006 7 N 5.5
Ieri h: 04:55 nuvoloso Nuvoloso 20 18 88 1005 8 N 1.8